Gardiner, New York
Current Conditions -  °F | °C
As of 1:45 AM on Monday 22 Dec 2014 (Local Time) from KSWF Reporting Station
Overcast Overcast  
Wind Chill: 24°   Ceiling: 2000
Heat Index: 30°   Visibility: 10mi
Dew Point: 28°   Wind: 6mph
Humidity: 93%   Direction: 90°E
Pressure: 30.33"   Gusts: NA
Location:  41.68°N, 74.15°W
Report Text: KSWF 220645Z 09005KT 10SM OVC020 M01/M02 A3033
Loading
Personal Weather Stations






























Interactive Weather Map New forecast layout! Learn more

10-Day Weather Forecast

Advertisements
Track Severe Weather on mobile